createdAt,value
2017-12-26T00:01:52.784Z,74.29
2017-12-26T00:04:22.602Z,74.37
2017-12-26T00:06:50.023Z,74.44
2017-12-26T00:09:17.489Z,74.40
2017-12-26T00:11:44.923Z,74.38
2017-12-26T00:14:13.282Z,74.44
2017-12-26T00:16:40.703Z,74.49
2017-12-26T00:19:09.441Z,74.61
2017-12-26T00:21:37.205Z,74.48
2017-12-26T00:24:04.647Z,74.39
2017-12-26T00:26:32.128Z,74.50
2017-12-26T00:29:00.431Z,74.37
2017-12-26T00:31:28.127Z,74.34
2017-12-26T00:33:55.575Z,74.26
2017-12-26T00:36:23.077Z,73.97
2017-12-26T00:38:50.544Z,73.83
2017-12-26T00:41:18.689Z,73.79
2017-12-26T00:43:46.136Z,73.64
2017-12-26T00:46:13.589Z,73.49
2017-12-26T00:48:41.038Z,73.60
2017-12-26T00:51:08.589Z,73.51
2017-12-26T00:53:36.137Z,73.38
2017-12-26T00:56:03.644Z,73.69
2017-12-26T00:58:31.057Z,73.90
2017-12-26T01:00:58.537Z,73.89
2017-12-26T01:03:25.991Z,73.74
2017-12-26T01:05:53.427Z,73.76
2017-12-26T01:08:20.887Z,73.61
2017-12-26T01:10:48.343Z,73.68
2017-12-26T01:13:15.767Z,73.61
2017-12-26T01:15:43.279Z,73.79
2017-12-26T01:18:10.773Z,73.80
2017-12-26T01:20:38.214Z,73.79
2017-12-26T01:23:05.901Z,73.53
2017-12-26T01:25:33.406Z,73.66
2017-12-26T01:28:00.844Z,73.56
2017-12-26T01:30:28.356Z,73.58
2017-12-26T01:32:55.832Z,73.48
2017-12-26T01:35:23.268Z,73.48
2017-12-26T01:37:50.711Z,73.39
2017-12-26T01:40:18.151Z,73.29
2017-12-26T01:42:45.569Z,73.29
2017-12-26T01:45:13.828Z,73.21
2017-12-26T01:47:41.255Z,73.21
2017-12-26T01:50:08.678Z,72.99
2017-12-26T01:52:36.389Z,73.03
2017-12-26T01:55:03.858Z,72.98
2017-12-26T01:57:31.297Z,72.74
2017-12-26T01:59:58.707Z,72.76
2017-12-26T02:02:26.242Z,72.77
2017-12-26T02:04:53.668Z,72.59
2017-12-26T02:07:21.088Z,72.49
2017-12-26T02:09:48.562Z,72.38
2017-12-26T02:12:15.986Z,72.30
2017-12-26T02:14:43.411Z,72.18
2017-12-26T02:17:11.568Z,72.22
2017-12-26T02:19:38.973Z,72.20
2017-12-26T02:22:06.674Z,72.04
2017-12-26T02:24:34.586Z,71.93
2017-12-26T02:27:02.006Z,71.94
2017-12-26T02:29:29.532Z,71.96
2017-12-26T02:31:56.969Z,71.97
2017-12-26T02:34:24.392Z,72.01
2017-12-26T02:36:51.820Z,71.96
2017-12-26T02:39:19.261Z,72.00
2017-12-26T02:41:46.806Z,71.96
2017-12-26T02:44:14.282Z,71.92
2017-12-26T02:46:41.733Z,71.93
2017-12-26T02:49:09.188Z,72.10
2017-12-26T02:51:36.638Z,72.04
2017-12-26T02:54:04.094Z,71.96
2017-12-26T02:56:31.538Z,72.05
2017-12-26T02:58:59.081Z,72.06
2017-12-26T03:01:26.503Z,72.10
2017-12-26T03:03:54.236Z,72.08
2017-12-26T03:06:21.651Z,72.14
2017-12-26T03:08:49.106Z,72.13
2017-12-26T03:11:17.433Z,72.10
2017-12-26T03:13:44.904Z,72.07
2017-12-26T03:16:12.331Z,72.04
2017-12-26T03:18:39.796Z,72.05
2017-12-26T03:21:07.228Z,72.13
2017-12-26T03:23:34.687Z,72.13
2017-12-26T03:26:02.202Z,71.97
2017-12-26T03:28:29.628Z,72.12
2017-12-26T03:30:57.067Z,72.14
2017-12-26T03:33:24.522Z,72.18
2017-12-26T03:35:51.964Z,72.27
2017-12-26T03:38:19.476Z,72.38
2017-12-26T03:40:46.908Z,72.35
2017-12-26T03:43:14.609Z,72.38
2017-12-26T03:45:42.037Z,72.32
2017-12-26T03:48:09.554Z,72.35
2017-12-26T03:50:38.940Z,72.31
2017-12-26T03:53:06.392Z,72.40
2017-12-26T03:55:34.565Z,72.45
2017-12-26T03:58:02.019Z,72.42
2017-12-26T04:00:30.413Z,72.36
2017-12-26T04:02:59.776Z,72.36
2017-12-26T04:05:28.840Z,72.39
2017-12-26T04:07:56.549Z,72.37
2017-12-26T04:10:24.100Z,72.44
2017-12-26T04:12:51.843Z,72.52
2017-12-26T04:15:19.353Z,72.40
2017-12-26T04:17:46.848Z,72.42
2017-12-26T04:20:15.162Z,72.35
2017-12-26T04:22:42.929Z,72.40
2017-12-26T04:25:12.412Z,72.20
2017-12-26T04:27:44.180Z,72.13
2017-12-26T04:30:12.622Z,72.19
2017-12-26T04:32:40.137Z,72.22
2017-12-26T04:35:07.923Z,72.17
2017-12-26T04:37:35.421Z,72.34
2017-12-26T04:40:02.908Z,72.48
2017-12-26T04:42:30.657Z,72.59
2017-12-26T04:44:58.145Z,72.80
2017-12-26T04:47:26.473Z,72.91
2017-12-26T04:49:53.964Z,72.93
2017-12-26T04:52:21.442Z,72.99
2017-12-26T04:54:48.968Z,73.03
2017-12-26T04:57:17.427Z,72.95
2017-12-26T04:59:44.909Z,72.96
2017-12-26T05:02:12.389Z,73.00
2017-12-26T05:04:39.883Z,73.04
2017-12-26T05:07:07.894Z,73.05
2017-12-26T05:09:35.368Z,73.08
2017-12-26T05:12:02.866Z,73.25
2017-12-26T05:14:30.369Z,73.42
2017-12-26T05:16:57.853Z,73.59
2017-12-26T05:19:25.391Z,73.54
2017-12-26T05:21:54.905Z,73.61
2017-12-26T05:24:22.386Z,73.73
2017-12-26T05:26:50.268Z,73.81
2017-12-26T05:29:17.787Z,73.89
2017-12-26T05:31:47.245Z,74.01
2017-12-26T05:34:14.785Z,74.11
2017-12-26T05:36:43.150Z,74.16
2017-12-26T05:39:10.652Z,74.35
2017-12-26T05:41:38.183Z,74.54
2017-12-26T05:44:05.685Z,74.70
2017-12-26T05:46:33.178Z,74.85
2017-12-26T05:49:00.904Z,75.04
2017-12-26T05:51:28.500Z,75.17
2017-12-26T05:53:56.013Z,75.23
2017-12-26T05:56:23.517Z,75.38
2017-12-26T05:58:51.026Z,75.44
2017-12-26T06:01:18.526Z,75.59
2017-12-26T06:03:46.066Z,75.68
2017-12-26T06:06:13.528Z,75.75
2017-12-26T06:08:40.987Z,75.87
2017-12-26T06:11:09.281Z,75.99
2017-12-26T06:13:36.810Z,75.89
2017-12-26T06:16:04.311Z,76.01
2017-12-26T06:18:31.829Z,76.07
2017-12-26T06:20:59.326Z,76.11
2017-12-26T06:23:26.843Z,76.17
2017-12-26T06:25:54.360Z,76.06
2017-12-26T06:28:21.902Z,76.08
2017-12-26T06:30:49.412Z,76.09
2017-12-26T06:33:16.920Z,76.06
2017-12-26T06:35:44.422Z,76.09
2017-12-26T06:38:11.962Z,76.02
2017-12-26T06:40:39.473Z,75.94
2017-12-26T06:43:11.930Z,75.85
2017-12-26T06:45:39.674Z,75.83
2017-12-26T06:48:08.984Z,75.86
2017-12-26T06:50:37.339Z,75.70
2017-12-26T06:53:04.854Z,75.62
2017-12-26T06:55:32.381Z,75.51
2017-12-26T06:57:59.854Z,75.43
2017-12-26T07:00:27.415Z,75.08
2017-12-26T07:02:55.121Z,74.82
2017-12-26T07:05:22.909Z,74.53
2017-12-26T07:07:50.405Z,74.13
2017-12-26T07:10:17.904Z,73.99
2017-12-26T07:12:45.474Z,73.80
2017-12-26T07:15:12.984Z,73.48
2017-12-26T07:17:40.478Z,73.09
2017-12-26T07:20:13.434Z,72.89
2017-12-26T07:22:40.941Z,72.77
2017-12-26T07:25:08.433Z,72.44
2017-12-26T07:27:35.925Z,72.20
2017-12-26T07:30:03.446Z,71.91
2017-12-26T07:32:30.924Z,71.68
2017-12-26T07:34:58.446Z,71.64
2017-12-26T07:37:25.944Z,71.53
2017-12-26T07:39:54.317Z,71.43
2017-12-26T07:42:21.815Z,71.46
2017-12-26T07:44:49.329Z,71.27
2017-12-26T07:47:17.079Z,71.06
2017-12-26T07:49:44.611Z,70.98
2017-12-26T07:52:12.090Z,70.95
2017-12-26T07:54:39.596Z,70.51
2017-12-26T07:57:07.120Z,70.26
2017-12-26T07:59:34.673Z,69.88
2017-12-26T08:02:02.202Z,69.65
2017-12-26T08:04:29.690Z,69.54
2017-12-26T08:06:57.119Z,69.28
2017-12-26T08:09:24.637Z,69.09
2017-12-26T08:11:52.082Z,68.97
2017-12-26T08:14:19.549Z,68.99
2017-12-26T08:16:47.037Z,68.80
2017-12-26T08:19:14.470Z,68.88
2017-12-26T08:21:41.973Z,68.72
2017-12-26T08:24:09.422Z,68.60
2017-12-26T08:26:36.860Z,68.54
2017-12-26T08:29:04.366Z,68.52
2017-12-26T08:31:31.804Z,68.48
2017-12-26T08:33:59.599Z,68.51
2017-12-26T08:36:27.031Z,68.35
2017-12-26T08:38:54.752Z,68.27
2017-12-26T08:41:22.194Z,68.18
2017-12-26T08:43:49.654Z,68.05
2017-12-26T08:46:17.085Z,67.84
2017-12-26T08:48:44.508Z,67.75
2017-12-26T08:51:11.968Z,67.68
2017-12-26T08:53:39.421Z,67.67
2017-12-26T08:56:07.649Z,67.73
2017-12-26T08:58:35.121Z,67.87
2017-12-26T09:01:02.573Z,67.95
2017-12-26T09:03:30.012Z,68.03
2017-12-26T09:05:57.480Z,68.06
2017-12-26T09:08:24.969Z,68.04
2017-12-26T09:10:52.435Z,68.26
2017-12-26T09:13:19.892Z,68.33
2017-12-26T09:15:47.331Z,68.30
2017-12-26T09:18:14.836Z,68.44
2017-12-26T09:20:42.285Z,68.42
2017-12-26T09:23:10.791Z,68.46
2017-12-26T09:25:38.251Z,68.55
2017-12-26T09:28:05.657Z,68.50
2017-12-26T09:30:33.121Z,68.48
2017-12-26T09:33:00.576Z,68.40
2017-12-26T09:35:27.996Z,68.32
2017-12-26T09:37:55.465Z,68.37
2017-12-26T09:40:25.806Z,69.58
2017-12-26T09:42:58.329Z,69.71
2017-12-26T09:45:26.625Z,67.15
2017-12-26T09:47:54.045Z,67.00
2017-12-26T09:50:21.484Z,67.58
2017-12-26T09:52:50.551Z,67.07
2017-12-26T09:55:18.047Z,67.39
2017-12-26T09:57:45.659Z,67.45
2017-12-26T10:00:13.204Z,67.49
2017-12-26T10:02:40.732Z,67.53
2017-12-26T10:05:08.227Z,67.63
2017-12-26T10:07:35.710Z,67.71
2017-12-26T10:10:03.178Z,67.78
2017-12-26T10:12:31.451Z,67.82
2017-12-26T10:14:58.916Z,67.71
2017-12-26T10:17:27.041Z,67.78
2017-12-26T10:19:54.542Z,67.56
2017-12-26T10:22:22.059Z,67.31
2017-12-26T10:24:50.279Z,67.30
2017-12-26T10:27:17.746Z,67.27
2017-12-26T10:29:46.027Z,67.13
2017-12-26T10:32:13.545Z,67.40
2017-12-26T10:34:41.063Z,67.42
2017-12-26T10:37:08.623Z,67.29
2017-12-26T10:39:36.162Z,67.05
2017-12-26T10:42:03.650Z,66.81
2017-12-26T10:44:31.120Z,66.41
2017-12-26T10:46:58.597Z,66.08
2017-12-26T10:49:26.066Z,65.87
2017-12-26T10:51:53.806Z,65.92
2017-12-26T10:54:21.294Z,65.81
2017-12-26T10:56:48.785Z,65.75
2017-12-26T10:59:16.261Z,65.76
2017-12-26T11:01:43.939Z,65.67
2017-12-26T11:04:11.373Z,65.67
2017-12-26T11:06:38.836Z,65.93
2017-12-26T11:09:06.334Z,66.07
2017-12-26T11:11:33.840Z,66.10
2017-12-26T11:14:01.288Z,65.99
2017-12-26T11:16:28.763Z,65.72
2017-12-26T11:18:56.302Z,65.28
2017-12-26T11:21:24.010Z,65.33
2017-12-26T11:23:51.492Z,64.98
2017-12-26T11:26:18.910Z,64.65
2017-12-26T11:28:46.393Z,64.35
2017-12-26T11:31:13.853Z,64.31
2017-12-26T11:33:41.382Z,64.19
2017-12-26T11:36:08.834Z,63.98
2017-12-26T11:38:36.286Z,63.93
2017-12-26T11:41:03.856Z,63.58
2017-12-26T11:43:31.393Z,63.32
2017-12-26T11:45:59.099Z,62.85
2017-12-26T11:48:26.605Z,62.46
2017-12-26T11:50:54.794Z,62.01
2017-12-26T11:53:22.251Z,61.83
2017-12-26T11:55:49.745Z,61.23
2017-12-26T11:58:17.179Z,61.10
2017-12-26T12:00:44.653Z,60.95
2017-12-26T12:03:12.093Z,60.82
2017-12-26T12:05:39.530Z,60.50
2017-12-26T12:08:06.998Z,60.38
2017-12-26T12:10:34.453Z,60.67
2017-12-26T12:13:01.898Z,60.74
2017-12-26T12:15:29.411Z,60.74
2017-12-26T12:17:56.897Z,60.62
2017-12-26T12:20:24.361Z,60.59
2017-12-26T12:22:51.819Z,60.73
2017-12-26T12:25:19.269Z,60.85
2017-12-26T12:27:46.718Z,61.13
2017-12-26T12:30:14.234Z,61.30
2017-12-26T12:32:41.672Z,61.55
2017-12-26T12:35:09.123Z,62.00
2017-12-26T12:37:36.592Z,62.32
2017-12-26T12:40:04.095Z,62.62
2017-12-26T12:42:31.586Z,62.92
2017-12-26T12:44:59.025Z,63.14
2017-12-26T12:47:26.498Z,63.15
2017-12-26T12:49:53.937Z,63.02
2017-12-26T12:52:21.586Z,63.12
2017-12-26T12:55:08.245Z,62.82
2017-12-26T12:57:35.784Z,62.20
2017-12-26T13:00:03.279Z,62.29
2017-12-26T13:02:31.023Z,62.26
2017-12-26T13:04:58.485Z,62.50
2017-12-26T13:07:26.010Z,62.68
2017-12-26T13:09:53.453Z,62.92
2017-12-26T13:12:20.891Z,63.00
2017-12-26T13:14:48.385Z,63.17
2017-12-26T13:17:15.965Z,63.33
2017-12-26T13:19:43.501Z,63.61
2017-12-26T13:22:10.978Z,63.86
2017-12-26T13:24:38.438Z,63.84
2017-12-26T13:27:05.912Z,64.08
2017-12-26T13:29:33.368Z,63.74
2017-12-26T13:32:00.941Z,63.52
2017-12-26T13:34:28.427Z,62.62
2017-12-26T13:36:55.971Z,62.68
2017-12-26T13:39:23.454Z,62.51
2017-12-26T13:41:50.896Z,62.51
2017-12-26T13:44:18.339Z,62.37
2017-12-26T13:46:45.806Z,62.31
2017-12-26T13:49:13.251Z,61.95
2017-12-26T13:51:40.743Z,62.00
2017-12-26T13:54:08.205Z,61.99
2017-12-26T13:56:35.647Z,62.13
2017-12-26T13:59:03.157Z,61.90
2017-12-26T14:01:30.664Z,61.89
2017-12-26T14:03:58.173Z,62.13
2017-12-26T14:06:25.629Z,62.41
2017-12-26T14:08:53.156Z,62.64
2017-12-26T14:11:20.642Z,63.20
2017-12-26T14:13:48.185Z,63.94
2017-12-26T14:16:15.620Z,65.73
2017-12-26T14:18:43.070Z,66.88
2017-12-26T14:21:10.518Z,67.97
2017-12-26T14:23:38.064Z,68.91
2017-12-26T14:26:05.534Z,69.91
2017-12-26T14:28:32.995Z,70.39
2017-12-26T14:31:00.525Z,71.55
2017-12-26T14:33:28.090Z,72.92
2017-12-26T14:35:55.543Z,74.23
2017-12-26T14:38:23.047Z,75.38
2017-12-26T14:40:50.784Z,76.19
2017-12-26T14:43:18.250Z,76.14
2017-12-26T14:45:45.744Z,75.91
2017-12-26T14:48:13.192Z,76.45
2017-12-26T14:50:40.701Z,75.79
2017-12-26T14:53:08.141Z,75.77
2017-12-26T14:55:35.694Z,75.75
2017-12-26T14:58:03.183Z,74.95
2017-12-26T15:00:30.667Z,73.94
2017-12-26T15:02:58.103Z,74.15
2017-12-26T15:05:25.576Z,73.69
2017-12-26T15:07:53.078Z,73.63
2017-12-26T15:10:20.535Z,73.04
2017-12-26T15:12:48.036Z,72.61
2017-12-26T15:15:15.551Z,72.40
2017-12-26T15:17:42.974Z,71.46
2017-12-26T15:20:10.503Z,71.24
2017-12-26T15:22:38.216Z,70.50
2017-12-26T15:25:05.699Z,70.94
2017-12-26T15:27:33.145Z,70.29
2017-12-26T15:30:00.614Z,70.43
2017-12-26T15:32:28.049Z,70.42
2017-12-26T15:34:55.501Z,70.15
2017-12-26T15:37:23.682Z,69.77
2017-12-26T15:39:55.560Z,68.70
2017-12-26T15:42:23.013Z,68.01
2017-12-26T15:44:50.554Z,64.51
2017-12-26T15:47:18.028Z,64.76
2017-12-26T15:49:45.478Z,65.37
2017-12-26T15:52:13.006Z,65.74
2017-12-26T15:54:40.819Z,65.29
2017-12-26T15:57:08.280Z,64.07
2017-12-26T15:59:35.731Z,63.84
2017-12-26T16:02:03.149Z,63.15
2017-12-26T16:04:30.731Z,62.90
2017-12-26T16:06:58.162Z,64.44
2017-12-26T16:09:25.658Z,63.17
2017-12-26T16:11:53.124Z,63.74
2017-12-26T16:14:21.408Z,64.19
2017-12-26T16:16:48.821Z,65.27
2017-12-26T16:19:16.278Z,65.72
2017-12-26T16:21:43.970Z,66.28
2017-12-26T16:24:11.433Z,66.66
2017-12-26T16:26:38.888Z,67.09
2017-12-26T16:29:06.389Z,67.35
2017-12-26T16:31:33.864Z,67.62
2017-12-26T16:34:01.320Z,67.86
2017-12-26T16:36:29.610Z,68.04
2017-12-26T16:38:57.072Z,68.16
2017-12-26T16:41:24.500Z,68.19
2017-12-26T16:43:51.998Z,68.16
2017-12-26T16:46:19.529Z,68.30
2017-12-26T16:48:46.956Z,68.28
2017-12-26T16:51:14.431Z,67.75
2017-12-26T16:53:41.875Z,67.72
2017-12-26T16:56:09.929Z,67.83
2017-12-26T16:58:37.384Z,67.86
2017-12-26T17:01:04.839Z,67.98
2017-12-26T17:03:32.294Z,68.17
2017-12-26T17:05:59.742Z,68.06
2017-12-26T17:08:27.265Z,68.49
2017-12-26T17:10:54.719Z,68.32
2017-12-26T17:13:27.215Z,68.27
2017-12-26T17:15:54.652Z,68.39
2017-12-26T17:18:22.143Z,68.22
2017-12-26T17:20:49.589Z,68.49
2017-12-26T17:23:18.034Z,68.32
2017-12-26T17:25:46.252Z,68.41
2017-12-26T17:28:13.697Z,68.49
2017-12-26T17:30:41.524Z,68.48
2017-12-26T17:33:08.973Z,68.43
2017-12-26T17:35:36.412Z,68.75
2017-12-26T17:38:03.881Z,68.59
2017-12-26T17:40:31.303Z,71.21
2017-12-26T17:42:58.788Z,69.44
2017-12-26T17:45:26.254Z,69.00
2017-12-26T17:47:53.675Z,66.37
2017-12-26T17:50:21.193Z,65.86
2017-12-26T17:52:48.632Z,65.91
2017-12-26T17:55:16.127Z,64.44
2017-12-26T17:57:43.619Z,64.76
2017-12-26T18:00:11.086Z,65.42
2017-12-26T18:02:38.540Z,65.90
2017-12-26T18:05:06.030Z,66.22
2017-12-26T18:07:33.582Z,66.48
2017-12-26T18:10:01.214Z,66.55
2017-12-26T18:12:28.936Z,66.58
2017-12-26T18:14:56.410Z,66.82
2017-12-26T18:17:23.884Z,66.97
2017-12-26T18:19:51.342Z,67.09
2017-12-26T18:22:18.792Z,67.17
2017-12-26T18:24:46.280Z,67.38
2017-12-26T18:27:13.734Z,67.49
2017-12-26T18:29:41.254Z,67.57
2017-12-26T18:32:08.712Z,67.79
2017-12-26T18:34:36.187Z,68.09
2017-12-26T18:37:03.698Z,68.25
2017-12-26T18:39:31.277Z,68.40
2017-12-26T18:41:58.711Z,68.52
2017-12-26T18:44:26.238Z,68.41
2017-12-26T18:46:53.949Z,68.61
2017-12-26T18:49:21.404Z,68.73
2017-12-26T18:51:48.833Z,68.71
2017-12-26T18:54:16.935Z,68.78
2017-12-26T18:56:44.383Z,68.93
2017-12-26T18:59:11.879Z,68.97
2017-12-26T19:01:39.320Z,68.90
2017-12-26T19:04:06.861Z,68.81
2017-12-26T19:06:34.350Z,68.70
2017-12-26T19:09:01.838Z,68.73
2017-12-26T19:11:29.386Z,68.67
2017-12-26T19:13:56.816Z,68.73
2017-12-26T19:16:24.262Z,68.80
2017-12-26T19:18:51.765Z,68.89
2017-12-26T19:21:19.251Z,69.10
2017-12-26T19:23:46.708Z,69.38
2017-12-26T19:26:14.160Z,69.53
2017-12-26T19:28:41.624Z,69.49
2017-12-26T19:31:09.095Z,69.33
2017-12-26T19:33:36.573Z,69.14
2017-12-26T19:36:04.018Z,69.17
2017-12-26T19:38:31.699Z,69.32
2017-12-26T19:40:59.140Z,69.18
2017-12-26T19:43:26.594Z,69.08
2017-12-26T19:45:54.057Z,69.36
2017-12-26T19:48:21.528Z,69.51
2017-12-26T19:50:49.056Z,69.29
2017-12-26T19:53:16.540Z,69.54
2017-12-26T19:55:43.984Z,69.43
2017-12-26T19:58:11.449Z,69.51
2017-12-26T20:00:38.909Z,69.54
2017-12-26T20:03:06.391Z,69.63
2017-12-26T20:05:33.814Z,69.76
2017-12-26T20:08:01.343Z,69.73
2017-12-26T20:10:28.806Z,71.05
2017-12-26T20:12:56.523Z,69.41
2017-12-26T20:15:24.030Z,69.18
2017-12-26T20:17:51.558Z,69.50
2017-12-26T20:20:19.036Z,69.67
2017-12-26T20:22:46.519Z,69.78
2017-12-26T20:25:13.958Z,70.06
2017-12-26T20:27:41.413Z,70.19
2017-12-26T20:30:08.893Z,70.30
2017-12-26T20:32:36.427Z,70.41
2017-12-26T20:35:03.848Z,70.35
2017-12-26T20:37:31.375Z,70.42
2017-12-26T20:39:58.851Z,70.42
2017-12-26T20:42:26.352Z,70.43
2017-12-26T20:44:53.811Z,70.41
2017-12-26T20:47:21.322Z,70.43
2017-12-26T20:49:49.050Z,70.45
2017-12-26T20:52:16.508Z,70.45
2017-12-26T20:54:43.972Z,70.38
2017-12-26T20:57:11.474Z,70.52
2017-12-26T20:59:38.976Z,70.39
2017-12-26T21:02:06.456Z,70.71
2017-12-26T21:04:33.967Z,70.71
2017-12-26T21:07:01.449Z,70.85
2017-12-26T21:09:28.900Z,70.73
2017-12-26T21:11:56.378Z,70.86
2017-12-26T21:14:23.818Z,70.83
2017-12-26T21:16:51.245Z,70.95
2017-12-26T21:19:18.729Z,70.92
2017-12-26T21:21:46.311Z,70.87
2017-12-26T21:24:14.010Z,70.85
2017-12-26T21:26:41.453Z,71.03
2017-12-26T21:29:08.951Z,70.75
2017-12-26T21:31:36.413Z,70.66
2017-12-26T21:34:03.850Z,70.57
2017-12-26T21:36:31.328Z,70.49
2017-12-26T21:38:58.785Z,70.57
2017-12-26T21:41:26.269Z,70.47
2017-12-26T21:43:53.752Z,70.42
2017-12-26T21:46:21.192Z,70.60
2017-12-26T21:48:48.782Z,70.91
2017-12-26T21:51:16.207Z,70.90
2017-12-26T21:53:43.699Z,70.90
2017-12-26T21:56:11.175Z,70.84
2017-12-26T21:58:38.628Z,70.80
2017-12-26T22:01:06.173Z,70.81
2017-12-26T22:03:34.316Z,70.77
2017-12-26T22:06:01.838Z,70.84
2017-12-26T22:08:29.318Z,70.92
2017-12-26T22:10:56.764Z,70.82
2017-12-26T22:13:24.282Z,70.86
2017-12-26T22:15:51.816Z,70.64
2017-12-26T22:18:19.287Z,70.53
2017-12-26T22:20:46.781Z,70.54
2017-12-26T22:23:14.530Z,70.39
2017-12-26T22:25:42.050Z,70.48
2017-12-26T22:28:09.808Z,70.50
2017-12-26T22:30:37.304Z,70.57
2017-12-26T22:33:05.577Z,70.81
2017-12-26T22:35:33.030Z,70.97
2017-12-26T22:38:00.511Z,71.29
2017-12-26T22:40:28.220Z,71.54
2017-12-26T22:42:55.714Z,71.62
2017-12-26T22:45:23.883Z,71.83
2017-12-26T22:47:51.365Z,71.94
2017-12-26T22:50:18.816Z,71.98
2017-12-26T22:52:46.510Z,72.07
2017-12-26T22:55:13.944Z,72.18
2017-12-26T22:57:41.473Z,72.12
2017-12-26T23:00:08.981Z,71.97
2017-12-26T23:02:36.494Z,72.03
2017-12-26T23:05:04.649Z,72.04
2017-12-26T23:07:32.122Z,71.95
2017-12-26T23:09:59.543Z,72.20
2017-12-26T23:12:26.990Z,72.07
2017-12-26T23:14:59.944Z,72.13
2017-12-26T23:17:32.929Z,72.04
2017-12-26T23:20:05.857Z,71.95
2017-12-26T23:22:33.327Z,72.17
2017-12-26T23:25:06.276Z,72.05
2017-12-26T23:27:39.194Z,72.08
2017-12-26T23:30:12.129Z,72.09
2017-12-26T23:32:45.026Z,72.09
2017-12-26T23:35:17.984Z,71.98
2017-12-26T23:37:50.931Z,71.75
2017-12-26T23:40:23.947Z,71.75
2017-12-26T23:42:57.789Z,71.65
2017-12-26T23:45:30.732Z,71.48
2017-12-26T23:48:03.635Z,71.59
2017-12-26T23:50:36.699Z,71.60
2017-12-26T23:53:09.679Z,71.57
2017-12-26T23:55:43.347Z,71.50
2017-12-26T23:58:17.254Z,71.51
